createdAt,value
2023-03-04T00:00:32.286Z,102518.44
2023-03-04T00:02:59.933Z,102529.78
2023-03-04T00:05:27.584Z,102521.91
2023-03-04T00:07:55.010Z,102521.03
2023-03-04T00:10:22.496Z,102530.63
2023-03-04T00:12:50.122Z,102524.53
2023-03-04T00:15:17.569Z,102517.56
2023-03-04T00:17:46.196Z,102531.47
2023-03-04T00:20:14.375Z,102521.88
2023-03-04T00:22:41.892Z,102521.88
2023-03-04T00:25:09.761Z,102529.66
2023-03-04T00:27:37.398Z,102511.38
2023-03-04T00:30:07.253Z,102518.31
2023-03-04T00:32:34.739Z,102514.88
2023-03-04T00:35:06.001Z,102519.22
2023-03-04T00:37:33.569Z,102507.09
2023-03-04T00:40:01.212Z,102517.53
2023-03-04T00:42:28.706Z,102514.03
2023-03-04T00:44:56.390Z,102517.53
2023-03-04T00:47:23.935Z,102510.53
2023-03-04T00:49:51.361Z,102512.25
2023-03-04T00:52:18.928Z,102510.50
2023-03-04T00:54:46.438Z,102512.22
2023-03-04T00:57:14.132Z,102521.78
2023-03-04T00:59:43.757Z,102510.50
2023-03-04T01:02:11.305Z,102516.56
2023-03-04T01:04:39.125Z,102519.19
2023-03-04T01:07:06.654Z,102511.38
2023-03-04T01:09:34.649Z,102517.47
2023-03-04T01:12:04.037Z,102513.13
2023-03-04T01:14:31.811Z,102512.25
2023-03-04T01:16:59.467Z,102521.84
2023-03-04T01:19:27.166Z,102521.00
2023-03-04T01:21:54.852Z,102515.75
2023-03-04T01:24:22.989Z,102516.59
2023-03-04T01:26:50.648Z,102511.38
2023-03-04T01:29:18.191Z,102508.78
2023-03-04T01:31:45.637Z,102514.88
2023-03-04T01:34:13.693Z,102518.34
2023-03-04T01:36:41.281Z,102507.88
2023-03-04T01:39:08.989Z,102498.31
2023-03-04T01:41:36.588Z,102510.47
2023-03-04T01:44:04.513Z,102503.47
2023-03-04T01:46:33.050Z,102500.88
2023-03-04T01:49:00.843Z,102491.31
2023-03-04T01:51:28.399Z,102488.66
2023-03-04T01:53:56.413Z,102492.13
2023-03-04T01:56:36.729Z,102489.53
2023-03-04T01:59:10.781Z,102489.50
2023-03-04T02:01:40.930Z,102487.72
2023-03-04T02:04:09.843Z,102482.50
2023-03-04T02:06:40.339Z,102475.53
2023-03-04T02:09:09.092Z,102472.94
2023-03-04T02:11:38.841Z,102472.09
2023-03-04T02:14:07.467Z,102467.72
2023-03-04T02:16:35.362Z,102468.63
2023-03-04T02:19:09.707Z,102462.50
2023-03-04T02:21:37.316Z,102464.22
2023-03-04T02:24:36.980Z,102463.41
2023-03-04T02:27:05.416Z,102459.00
2023-03-04T02:29:33.067Z,102457.28
2023-03-04T02:32:00.964Z,102454.66
2023-03-04T02:34:35.573Z,102455.56
2023-03-04T02:37:04.550Z,102452.06
2023-03-04T02:39:41.026Z,102459.94
2023-03-04T02:42:09.273Z,102450.31
2023-03-04T02:44:46.230Z,102447.72
2023-03-04T02:47:20.578Z,102443.31
2023-03-04T02:49:49.824Z,102437.19
2023-03-04T02:52:26.438Z,102442.41
2023-03-04T02:54:53.924Z,102444.16
2023-03-04T02:57:21.483Z,102444.19
2023-03-04T02:59:53.605Z,102431.16
2023-03-04T03:02:24.221Z,102430.28
2023-03-04T03:04:52.250Z,102435.50
2023-03-04T03:07:21.506Z,102441.63
2023-03-04T03:09:49.972Z,102434.63
2023-03-04T03:12:18.870Z,102425.06
2023-03-04T03:14:46.677Z,102429.41
2023-03-04T03:17:17.841Z,102425.94
2023-03-04T03:19:45.383Z,102425.94
2023-03-04T03:22:13.283Z,102415.53
2023-03-04T03:24:40.750Z,102424.19
2023-03-04T03:27:08.243Z,102423.31
2023-03-04T03:29:36.013Z,102414.59
2023-03-04T03:32:03.693Z,102425.03
2023-03-04T03:34:31.262Z,102410.19
2023-03-04T03:36:58.821Z,102412.81
2023-03-04T03:39:26.366Z,102425.03
2023-03-04T03:41:54.011Z,102416.31
2023-03-04T03:44:21.466Z,102414.56
2023-03-04T03:46:48.875Z,102421.50
2023-03-04T03:49:17.251Z,102409.34
2023-03-04T03:51:44.824Z,102415.41
2023-03-04T03:54:12.430Z,102411.94
2023-03-04T03:56:40.050Z,102409.38
2023-03-04T03:59:07.657Z,102406.75
2023-03-04T04:01:35.194Z,102413.69
2023-03-04T04:04:03.091Z,102413.72
2023-03-04T04:06:30.569Z,102407.59
2023-03-04T04:08:58.120Z,102418.06
2023-03-04T04:11:25.813Z,102412.84
2023-03-04T04:13:53.296Z,102413.72
2023-03-04T04:16:20.862Z,102412.84
2023-03-04T04:18:48.564Z,102414.63
2023-03-04T04:21:16.130Z,102411.13
2023-03-04T04:23:43.614Z,102416.38
2023-03-04T04:26:11.164Z,102417.25
2023-03-04T04:28:38.636Z,102419.84
2023-03-04T04:31:09.853Z,102416.41
2023-03-04T04:33:37.767Z,102415.53
2023-03-04T04:36:06.226Z,102417.25
2023-03-04T04:38:33.703Z,102412.88
2023-03-04T04:41:01.237Z,102416.38
2023-03-04T04:43:28.908Z,102417.25
2023-03-04T04:45:59.069Z,102414.63
2023-03-04T04:48:26.599Z,102419.00
2023-03-04T04:50:56.502Z,102422.47
2023-03-04T04:53:24.062Z,102419.84
2023-03-04T04:55:51.778Z,102413.81
2023-03-04T04:58:19.215Z,102411.19
2023-03-04T05:00:46.747Z,102423.38
2023-03-04T05:03:14.302Z,102419.84
2023-03-04T05:05:42.554Z,102430.28
2023-03-04T05:08:09.985Z,102425.06
2023-03-04T05:10:38.055Z,102427.66
2023-03-04T05:13:05.645Z,102424.16
2023-03-04T05:15:33.113Z,102424.13
2023-03-04T05:18:00.662Z,102424.94
2023-03-04T05:20:28.371Z,102425.81
2023-03-04T05:22:56.134Z,102426.63
2023-03-04T05:25:23.544Z,102419.69
2023-03-04T05:27:51.122Z,102426.63
2023-03-04T05:30:18.613Z,102426.63
2023-03-04T05:32:46.242Z,102419.69
2023-03-04T05:35:13.954Z,102420.50
2023-03-04T05:37:41.373Z,102412.69
2023-03-04T05:40:10.085Z,102424.84
2023-03-04T05:42:38.615Z,102425.72
2023-03-04T05:45:07.064Z,102423.94
2023-03-04T05:47:34.512Z,102425.66
2023-03-04T05:50:02.177Z,102430.81
2023-03-04T05:52:29.699Z,102432.56
2023-03-04T05:54:57.164Z,102431.72
2023-03-04T05:57:24.872Z,102429.13
2023-03-04T05:59:52.429Z,102428.22
2023-03-04T06:02:20.129Z,102429.13
2023-03-04T06:04:47.865Z,102430.00
2023-03-04T06:07:15.766Z,102433.47
2023-03-04T06:09:45.187Z,102430.88
2023-03-04T06:12:13.338Z,102433.47
2023-03-04T06:14:40.861Z,102429.13
2023-03-04T06:17:08.399Z,102437.81
2023-03-04T06:19:38.018Z,102437.81
2023-03-04T06:22:05.824Z,102439.56
2023-03-04T06:24:33.296Z,102441.28
2023-03-04T06:27:01.444Z,102441.25
2023-03-04T06:29:29.223Z,102440.41
2023-03-04T06:31:56.885Z,102440.41
2023-03-04T06:34:24.546Z,102444.78
2023-03-04T06:36:52.068Z,102450.00
2023-03-04T06:39:19.861Z,102442.16
2023-03-04T06:41:47.331Z,102458.72
2023-03-04T06:44:14.775Z,102438.72
2023-03-04T06:46:42.528Z,102446.53
2023-03-04T06:49:10.491Z,102445.69
2023-03-04T06:51:38.041Z,102455.25
2023-03-04T06:54:05.823Z,102452.69
2023-03-04T06:56:33.301Z,102444.81
2023-03-04T06:59:00.845Z,102450.91
2023-03-04T07:01:29.833Z,102462.22
2023-03-04T07:03:57.938Z,102456.13
2023-03-04T07:06:28.728Z,102452.69
2023-03-04T07:08:57.305Z,102455.31
2023-03-04T07:11:25.510Z,102457.06
2023-03-04T07:13:53.456Z,102457.09
2023-03-04T07:16:23.615Z,102451.94
2023-03-04T07:18:51.258Z,102461.50
2023-03-04T07:21:19.630Z,102458.97
2023-03-04T07:23:47.583Z,102459.84
2023-03-04T07:26:15.165Z,102458.13
2023-03-04T07:28:43.455Z,102461.66
2023-03-04T07:31:30.586Z,102468.69
2023-03-04T07:34:01.899Z,102469.53
2023-03-04T07:36:29.993Z,102474.78
2023-03-04T07:38:57.917Z,102474.88
2023-03-04T07:41:28.208Z,102481.91
2023-03-04T07:43:59.295Z,102477.59
2023-03-04T07:46:26.978Z,102480.22
2023-03-04T07:48:56.376Z,102487.25
2023-03-04T07:51:26.861Z,102486.41
2023-03-04T07:53:58.775Z,102474.28
2023-03-04T07:56:30.683Z,102493.47
2023-03-04T07:58:59.871Z,102483.91
2023-03-04T08:01:32.536Z,102484.81
2023-03-04T08:04:00.947Z,102484.84
2023-03-04T08:06:29.550Z,102486.66
2023-03-04T08:09:00.671Z,102488.47
2023-03-04T08:11:30.795Z,102494.66
2023-03-04T08:13:59.053Z,102497.34
2023-03-04T08:16:26.867Z,102491.31
2023-03-04T08:19:00.592Z,102503.66
2023-03-04T08:21:29.044Z,102489.03
2023-03-04T08:24:02.341Z,102496.22
2023-03-04T08:26:35.541Z,102500.72
2023-03-04T08:29:05.617Z,102500.84
2023-03-04T08:31:34.105Z,102496.50
2023-03-04T08:34:04.164Z,102505.28
2023-03-04T08:36:31.754Z,102500.06
2023-03-04T08:38:59.241Z,102501.81
2023-03-04T08:41:27.569Z,102507.09
2023-03-04T08:43:55.312Z,102502.81
2023-03-04T08:46:22.911Z,102504.66
2023-03-04T08:48:50.488Z,102502.19
2023-03-04T08:51:18.597Z,102497.91
2023-03-04T08:53:46.809Z,102502.41
2023-03-04T08:56:15.354Z,102498.16
2023-03-04T08:58:43.007Z,102506.09
2023-03-04T09:01:13.457Z,102495.75
2023-03-04T09:03:42.599Z,102493.22
2023-03-04T09:06:15.082Z,102496.81
2023-03-04T09:08:44.039Z,102487.31
2023-03-04T09:11:12.894Z,102494.41
2023-03-04T09:13:40.739Z,102496.22
2023-03-04T09:16:14.486Z,102492.78
2023-03-04T09:18:43.146Z,102492.84
2023-03-04T09:21:11.466Z,102479.84
2023-03-04T09:23:39.690Z,102476.44
2023-03-04T09:26:25.339Z,102479.97
2023-03-04T09:28:58.696Z,102476.50
2023-03-04T09:31:28.559Z,102473.94
2023-03-04T09:33:59.086Z,102473.97
2023-03-04T09:36:26.846Z,102467.88
2023-03-04T09:38:54.565Z,102477.53
2023-03-04T09:41:29.509Z,102474.06
2023-03-04T09:43:58.164Z,102474.06
2023-03-04T09:46:39.022Z,102463.66
2023-03-04T09:49:07.492Z,102468.06
2023-03-04T09:51:51.184Z,102465.56
2023-03-04T09:54:50.566Z,102466.47
2023-03-04T09:57:42.720Z,102469.94
2023-03-04T10:00:20.098Z,102470.69
2023-03-04T10:03:14.156Z,102464.50
2023-03-04T10:06:01.158Z,102472.28
2023-03-04T10:09:11.484Z,102479.28
2023-03-04T10:11:49.067Z,102474.91
2023-03-04T10:14:22.459Z,102467.88
2023-03-04T10:17:13.275Z,102464.38
2023-03-04T10:19:52.894Z,102468.69
2023-03-04T10:22:45.992Z,102468.63
2023-03-04T10:25:30.782Z,102465.13
2023-03-04T10:28:13.312Z,102461.63
2023-03-04T10:30:50.019Z,102457.28
2023-03-04T10:33:31.044Z,102468.66
2023-03-04T10:36:02.985Z,102465.25
2023-03-04T10:38:41.793Z,102470.53
2023-03-04T10:41:22.601Z,102471.47
2023-03-04T10:44:18.281Z,102462.78
2023-03-04T10:46:50.358Z,102455.91
2023-03-04T10:49:19.697Z,102449.84
2023-03-04T10:52:26.619Z,102452.47
2023-03-04T10:54:57.450Z,102442.91
2023-03-04T10:57:40.973Z,102443.84
2023-03-04T11:00:17.841Z,102436.91
2023-03-04T11:02:50.008Z,102430.84
2023-03-04T11:05:18.943Z,102436.13
2023-03-04T11:08:00.694Z,102432.72
2023-03-04T11:10:37.177Z,102433.69
2023-03-04T11:13:24.564Z,102420.72
2023-03-04T11:15:55.205Z,102420.69
2023-03-04T11:18:30.593Z,102417.19
2023-03-04T11:21:00.818Z,102411.97
2023-03-04T11:23:39.790Z,102416.38
2023-03-04T11:26:24.150Z,102406.75
2023-03-04T11:29:00.828Z,102404.13
2023-03-04T11:31:42.495Z,102402.34
2023-03-04T11:34:42.274Z,102402.28
2023-03-04T11:38:00.702Z,102400.50
2023-03-04T11:40:56.977Z,102391.75
2023-03-04T11:43:47.114Z,102397.88
2023-03-04T11:46:33.429Z,102391.84
2023-03-04T11:49:31.918Z,102392.78
2023-03-04T11:52:21.465Z,102392.78
2023-03-04T11:55:06.204Z,102390.13
2023-03-04T11:57:51.847Z,102392.66
2023-03-04T12:00:39.035Z,102389.13
2023-03-04T12:03:44.307Z,102387.34
2023-03-04T12:06:33.084Z,102377.72
2023-03-04T12:09:24.550Z,102375.09
2023-03-04T12:12:20.804Z,102370.72
2023-03-04T12:15:10.925Z,102362.03
2023-03-04T12:17:44.712Z,102353.38
2023-03-04T12:20:44.844Z,102354.34
2023-03-04T12:23:41.804Z,102355.22
2023-03-04T12:26:39.528Z,102350.84
2023-03-04T12:29:32.983Z,102351.72
2023-03-04T12:33:07.101Z,102348.25
2023-03-04T12:36:05.525Z,102337.78
2023-03-04T12:38:57.120Z,102337.81
2023-03-04T12:41:59.672Z,102327.34
2023-03-04T12:44:48.021Z,102320.34
2023-03-04T12:47:38.932Z,102320.34
2023-03-04T12:50:38.159Z,102320.31
2023-03-04T12:53:22.830Z,102318.53
2023-03-04T12:55:52.288Z,102320.28
2023-03-04T12:58:28.610Z,102320.25
2023-03-04T13:01:27.488Z,102317.63
2023-03-04T13:04:23.288Z,102316.72
2023-03-04T13:07:09.664Z,102317.50
2023-03-04T13:09:55.096Z,102318.34
2023-03-04T13:12:23.969Z,102320.91
2023-03-04T13:15:26.223Z,102314.69
2023-03-04T13:17:58.156Z,102311.13
2023-03-04T13:20:31.641Z,102308.41
2023-03-04T13:23:01.440Z,102299.66
2023-03-04T13:25:32.114Z,102287.50
2023-03-04T13:28:05.301Z,102287.56
2023-03-04T13:30:34.474Z,102271.91
2023-03-04T13:33:09.338Z,102275.47
2023-03-04T13:35:48.932Z,102279.03
2023-03-04T13:38:47.692Z,102277.31
2023-03-04T13:41:50.915Z,102275.66
2023-03-04T13:44:57.906Z,102272.19
2023-03-04T13:47:45.411Z,102269.59
2023-03-04T13:50:28.164Z,102260.00
2023-03-04T13:53:30.764Z,102267.88
2023-03-04T13:56:22.033Z,102268.75
2023-03-04T13:59:01.520Z,102271.34
2023-03-04T14:01:32.654Z,102269.59
2023-03-04T14:04:10.632Z,102266.06
2023-03-04T14:06:44.170Z,102259.06
2023-03-04T14:09:22.194Z,102259.06
2023-03-04T14:11:54.116Z,102256.44
2023-03-04T14:14:30.853Z,102256.41
2023-03-04T14:17:06.554Z,102252.06
2023-03-04T14:19:44.075Z,102257.31
2023-03-04T14:22:31.038Z,102249.47
2023-03-04T14:25:19.186Z,102245.97
2023-03-04T14:27:47.897Z,102240.75
2023-03-04T14:30:40.939Z,102253.00
2023-03-04T14:33:18.915Z,102243.38
2023-03-04T14:35:49.786Z,102242.53
2023-03-04T14:38:32.012Z,102245.16
2023-03-04T14:41:11.375Z,102235.53
2023-03-04T14:44:14.796Z,102232.00
2023-03-04T14:47:06.555Z,102230.28
2023-03-04T14:49:37.185Z,102231.16
2023-03-04T14:52:25.808Z,102231.16
2023-03-04T14:55:28.848Z,102243.38
2023-03-04T14:58:21.564Z,102233.72
2023-03-04T15:01:15.587Z,102242.34
2023-03-04T15:04:08.262Z,102230.97
2023-03-04T15:06:48.371Z,102229.19
2023-03-04T15:09:27.078Z,102238.78
2023-03-04T15:12:06.162Z,102235.25
2023-03-04T15:14:54.977Z,102227.38
2023-03-04T15:17:38.817Z,102235.25
2023-03-04T15:20:06.183Z,102231.69
2023-03-04T15:22:53.047Z,102224.69
2023-03-04T15:25:21.198Z,102229.88
2023-03-04T15:27:50.751Z,102225.47
2023-03-04T15:30:27.527Z,102223.69
2023-03-04T15:32:58.799Z,102225.41
2023-03-04T15:35:33.230Z,102214.91
2023-03-04T15:38:01.493Z,102223.63
2023-03-04T15:40:41.884Z,102216.66
2023-03-04T15:43:18.576Z,102219.25
2023-03-04T15:45:49.761Z,102221.88
2023-03-04T15:48:19.938Z,102225.34
2023-03-04T15:50:58.481Z,102219.25
2023-03-04T15:53:33.696Z,102224.47
2023-03-04T15:56:03.727Z,102234.88
2023-03-04T15:58:34.985Z,102224.34
2023-03-04T16:01:03.772Z,102219.97
2023-03-04T16:03:31.670Z,102225.16
2023-03-04T16:05:59.331Z,102221.66
2023-03-04T16:08:26.842Z,102216.44
2023-03-04T16:10:54.837Z,102222.53
2023-03-04T16:13:24.214Z,102217.28
2023-03-04T16:15:53.338Z,102219.91
2023-03-04T16:18:21.555Z,102218.13
2023-03-04T16:20:51.429Z,102218.09
2023-03-04T16:23:24.556Z,102214.59
2023-03-04T16:25:56.950Z,102214.59
2023-03-04T16:28:24.531Z,102212.81
2023-03-04T16:30:52.205Z,102223.28
2023-03-04T16:33:19.893Z,102211.03
2023-03-04T16:35:47.757Z,102211.03
2023-03-04T16:38:28.172Z,102213.63
2023-03-04T16:40:57.897Z,102210.09
2023-03-04T16:43:25.993Z,102208.34
2023-03-04T16:45:53.599Z,102207.44
2023-03-04T16:48:21.431Z,102220.50
2023-03-04T16:50:49.171Z,102216.16
2023-03-04T16:53:38.381Z,102210.91
2023-03-04T16:56:12.741Z,102213.47
2023-03-04T16:58:41.411Z,102219.56
2023-03-04T17:01:21.655Z,102220.44
2023-03-04T17:03:49.244Z,102215.22
2023-03-04T17:06:17.076Z,102229.97
2023-03-04T17:08:44.999Z,102223.84
2023-03-04T17:11:22.745Z,102229.91
2023-03-04T17:13:51.463Z,102231.63
2023-03-04T17:16:19.235Z,102231.59
2023-03-04T17:18:46.940Z,102235.91
2023-03-04T17:21:23.727Z,102227.16
2023-03-04T17:23:53.049Z,102231.50
2023-03-04T17:26:22.572Z,102230.59
2023-03-04T17:28:51.552Z,102230.59
2023-03-04T17:31:21.000Z,102228.81
2023-03-04T17:33:49.606Z,102227.91
2023-03-04T17:36:19.536Z,102234.88
2023-03-04T17:38:49.584Z,102233.97
2023-03-04T17:41:18.736Z,102231.31
2023-03-04T17:43:50.207Z,102233.91
2023-03-04T17:46:24.402Z,102231.28
2023-03-04T17:48:56.126Z,102236.50
2023-03-04T17:51:35.586Z,102244.28
2023-03-04T17:54:05.730Z,102238.16
2023-03-04T17:56:35.328Z,102237.28
2023-03-04T17:59:08.747Z,102231.19
2023-03-04T18:01:36.264Z,102238.16
2023-03-04T18:04:04.259Z,102235.53
2023-03-04T18:06:31.986Z,102230.28
2023-03-04T18:08:59.628Z,102235.47
2023-03-04T18:11:27.975Z,102241.56
2023-03-04T18:13:56.695Z,102237.19
2023-03-04T18:16:26.965Z,102246.75
2023-03-04T18:18:57.903Z,102238.03
2023-03-04T18:21:29.169Z,102244.16
2023-03-04T18:23:57.914Z,102243.25
2023-03-04T18:26:27.639Z,102238.03
2023-03-04T18:28:56.677Z,102238.88
2023-03-04T18:31:31.597Z,102244.97
2023-03-04T18:34:04.053Z,102227.56
2023-03-04T18:36:33.565Z,102234.50
2023-03-04T18:39:04.355Z,102240.59
2023-03-04T18:41:32.206Z,102240.59
2023-03-04T18:43:59.774Z,102235.31
2023-03-04T18:46:40.243Z,102250.16
2023-03-04T18:49:10.059Z,102250.13
2023-03-04T18:51:38.765Z,102249.25
2023-03-04T18:54:06.569Z,102249.25
2023-03-04T18:56:52.820Z,102252.72
2023-03-04T18:59:31.463Z,102250.94
2023-03-04T19:02:06.787Z,102252.66
2023-03-04T19:04:34.341Z,102254.38
2023-03-04T19:07:01.827Z,102247.38
2023-03-04T19:09:29.497Z,102247.34
2023-03-04T19:11:57.232Z,102260.38
2023-03-04T19:14:24.891Z,102256.84
2023-03-04T19:16:52.403Z,102255.09
2023-03-04T19:19:23.048Z,102257.56
2023-03-04T19:21:50.636Z,102254.94
2023-03-04T19:24:18.101Z,102257.50
2023-03-04T19:26:45.890Z,102253.09
2023-03-04T19:29:13.599Z,102253.88
2023-03-04T19:31:41.767Z,102252.09
2023-03-04T19:34:09.968Z,102250.31
2023-03-04T19:36:38.293Z,102259.88
2023-03-04T19:39:07.911Z,102252.91
2023-03-04T19:41:36.090Z,102257.19
2023-03-04T19:44:03.629Z,102260.63
2023-03-04T19:46:32.241Z,102251.91
2023-03-04T19:49:03.169Z,102254.50
2023-03-04T19:51:32.736Z,102248.41
2023-03-04T19:54:00.449Z,102255.31
2023-03-04T19:56:28.692Z,102247.50
2023-03-04T19:58:57.080Z,102245.69
2023-03-04T20:01:34.554Z,102243.94
2023-03-04T20:04:15.424Z,102249.13
2023-03-04T20:06:46.308Z,102254.31
2023-03-04T20:09:17.380Z,102240.38
2023-03-04T20:11:57.763Z,102240.38
2023-03-04T20:14:27.809Z,102239.47
2023-03-04T20:17:03.063Z,102248.19
2023-03-04T20:19:33.897Z,102238.53
2023-03-04T20:22:02.762Z,102245.50
2023-03-04T20:24:30.434Z,102235.06
2023-03-04T20:26:58.298Z,102236.78
2023-03-04T20:29:27.437Z,102238.50
2023-03-04T20:31:55.531Z,102248.09
2023-03-04T20:34:23.876Z,102245.47
2023-03-04T20:36:51.416Z,102248.00
2023-03-04T20:39:28.831Z,102246.28
2023-03-04T20:41:58.878Z,102243.63
2023-03-04T20:44:27.452Z,102253.19
2023-03-04T20:46:55.016Z,102247.97
2023-03-04T20:49:28.133Z,102245.34
2023-03-04T20:52:06.278Z,102247.94
2023-03-04T20:54:37.432Z,102252.25
2023-03-04T20:57:07.923Z,102246.09
2023-03-04T20:59:36.333Z,102247.00
2023-03-04T21:02:06.138Z,102244.41
2023-03-04T21:04:34.438Z,102245.22
2023-03-04T21:07:02.319Z,102248.69
2023-03-04T21:09:30.232Z,102243.50
2023-03-04T21:11:59.785Z,102240.84
2023-03-04T21:14:31.181Z,102241.72
2023-03-04T21:17:03.805Z,102241.72
2023-03-04T21:19:36.378Z,102239.06
2023-03-04T21:22:04.667Z,102250.41
2023-03-04T21:24:35.886Z,102239.97
2023-03-04T21:27:04.612Z,102241.69
2023-03-04T21:29:32.660Z,102233.00
2023-03-04T21:32:23.272Z,102226.91
2023-03-04T21:34:54.800Z,102224.25
2023-03-04T21:37:25.102Z,102219.00
2023-03-04T21:39:54.388Z,102220.72
2023-03-04T21:42:22.288Z,102214.59
2023-03-04T21:44:51.624Z,102213.72
2023-03-04T21:47:21.714Z,102215.47
2023-03-04T21:49:49.682Z,102212.00
2023-03-04T21:52:21.100Z,102208.47
2023-03-04T21:54:49.532Z,102206.69
2023-03-04T21:57:17.934Z,102211.88
2023-03-04T21:59:45.553Z,102207.50
2023-03-04T22:02:20.625Z,102204.91
2023-03-04T22:04:48.843Z,102203.16
2023-03-04T22:07:17.351Z,102209.25
2023-03-04T22:09:44.985Z,102202.25
2023-03-04T22:12:14.396Z,102199.66
2023-03-04T22:14:42.169Z,102196.13
2023-03-04T22:17:09.784Z,102202.22
2023-03-04T22:19:37.365Z,102197.84
2023-03-04T22:22:05.166Z,102199.59
2023-03-04T22:24:32.595Z,102195.25
2023-03-04T22:27:00.309Z,102189.13
2023-03-04T22:29:28.163Z,102192.56
2023-03-04T22:31:55.861Z,102196.03
2023-03-04T22:34:23.420Z,102188.19
2023-03-04T22:36:51.045Z,102193.38
2023-03-04T22:39:23.104Z,102193.38
2023-03-04T22:41:50.904Z,102186.41
2023-03-04T22:44:19.002Z,102187.25
2023-03-04T22:46:46.645Z,102190.66
2023-03-04T22:49:14.932Z,102185.41
2023-03-04T22:51:45.209Z,102192.34
2023-03-04T22:54:17.511Z,102188.00
2023-03-04T22:56:45.233Z,102186.19
2023-03-04T22:59:13.763Z,102183.59
2023-03-04T23:01:41.793Z,102186.16
2023-03-04T23:04:09.382Z,102182.69
2023-03-04T23:06:37.685Z,102179.19
2023-03-04T23:09:06.230Z,102172.22
2023-03-04T23:11:35.627Z,102173.06
2023-03-04T23:14:07.296Z,102180.84
2023-03-04T23:16:39.202Z,102175.50
2023-03-04T23:19:08.287Z,102165.94
2023-03-04T23:21:37.836Z,102165.94
2023-03-04T23:24:07.922Z,102159.88
2023-03-04T23:26:41.385Z,102164.22
2023-03-04T23:29:13.760Z,102165.09
2023-03-04T23:31:42.689Z,102163.31
2023-03-04T23:34:11.308Z,102154.59
2023-03-04T23:36:39.270Z,102156.34
2023-03-04T23:39:07.581Z,102151.13
2023-03-04T23:41:36.284Z,102156.28
2023-03-04T23:44:04.705Z,102151.91
2023-03-04T23:46:32.817Z,102148.44
2023-03-04T23:49:00.573Z,102141.50
2023-03-04T23:51:29.987Z,102152.75
2023-03-04T23:53:58.197Z,102151.88
2023-03-04T23:56:29.884Z,102146.66
2023-03-04T23:58:58.756Z,102143.91
